Time;durP1;ratioP1;P1;durP2;ratioP2;P2;SDS_P1;SDS_P2;PMS_P1;PMS_P2;Temp;Humidity;BMP_temperature;BMP_pressure;BME280_temperature;BME280_humidity;BME280_pressure;Samples;Min_cycle;Max_cycle;Signal;HPM_P1;HPM_P2
2023/10/12 00:02:26;;;;;;;7.65;4.32;;;20.70;99.90;;;;;;4975669;28;20173;-71
2023/10/12 00:07:34;;;;;;;10.10;4.75;;;20.60;99.90;;;;;;4975407;28;20186;-70
2023/10/12 00:10:19;;;;;;;5.65;3.97;;;20.60;99.90;;;;;;4975254;28;20189;-70
2023/10/12 00:12:46;;;;;;;8.20;4.45;;;20.60;99.90;;;;;;4974313;28;20178;-70
2023/10/12 00:17:51;;;;;;;6.97;5.00;;;20.50;99.90;;;;;;4975360;28;20223;-70
2023/10/12 00:23:14;;;;;;;10.15;4.78;;;20.40;99.90;;;;;;4966369;28;20193;-71
2023/10/12 00:25:46;;;;;;;9.35;4.82;;;20.40;99.90;;;;;;4975223;28;20166;-71
2023/10/12 00:28:14;;;;;;;8.75;5.75;;;20.40;99.90;;;;;;4974834;28;20236;-71
2023/10/12 00:30:41;;;;;;;8.35;5.65;;;20.40;99.90;;;;;;4975142;28;20214;-71
2023/10/12 00:33:08;;;;;;;8.32;5.07;;;20.30;99.90;;;;;;4974343;28;20197;-72
2023/10/12 00:35:37;;;;;;;7.55;4.45;;;20.30;99.90;;;;;;4973688;28;20660;-72
2023/10/12 00:38:19;;;;;;;6.85;4.28;;;20.30;99.90;;;;;;4974898;28;20180;-69
2023/10/12 00:40:57;;;;;;;8.23;4.82;;;20.30;99.90;;;;;;4974826;28;20182;-72
2023/10/12 00:43:23;;;;;;;6.05;4.40;;;20.30;99.90;;;;;;4974309;28;20528;-72
2023/10/12 00:45:49;;;;;;;7.15;4.60;;;20.30;99.90;;;;;;4974492;28;20189;-70
2023/10/12 00:48:16;;;;;;;10.77;4.90;;;20.30;99.90;;;;;;4974855;28;20253;-72
2023/10/12 00:50:46;;;;;;;7.95;4.13;;;20.40;99.90;;;;;;4975027;28;20193;-70
2023/10/12 00:53:22;;;;;;;7.57;4.78;;;20.40;99.90;;;;;;4973971;28;20173;-69
2023/10/12 00:55:48;;;;;;;5.57;4.15;;;20.30;99.90;;;;;;4974492;28;20173;-72
2023/10/12 00:58:15;;;;;;;6.22;4.25;;;20.30;99.90;;;;;;4974300;28;20180;-70
2023/10/12 01:00:45;;;;;;;6.57;3.67;;;20.30;99.90;;;;;;4974460;28;20669;-73
2023/10/12 01:06:12;;;;;;;8.35;4.28;;;20.20;99.90;;;;;;4974232;28;20220;-71
2023/10/12 01:08:43;;;;;;;7.45;4.68;;;20.20;99.90;;;;;;4974362;28;20676;-68
2023/10/12 01:11:33;;;;;;;8.32;4.38;;;20.20;99.90;;;;;;4973916;28;20661;-69
2023/10/12 01:16:36;;;;;;;8.60;4.65;;;20.10;99.90;;;;;;4974392;28;20174;-70
2023/10/12 01:19:07;;;;;;;6.20;4.50;;;20.10;99.90;;;;;;4974272;28;20285;-71
2023/10/12 01:21:36;;;;;;;10.15;4.70;;;20.00;99.90;;;;;;4974327;28;20197;-70
2023/10/12 01:24:14;;;;;;;5.35;4.40;;;19.90;99.90;;;;;;4973452;28;20663;-72
2023/10/12 01:26:44;;;;;;;6.20;4.55;;;20.00;99.90;;;;;;4974741;28;20260;-72
2023/10/12 01:29:22;;;;;;;10.32;4.75;;;19.90;99.90;;;;;;4974198;28;20228;-71
2023/10/12 01:32:20;;;;;;;7.32;3.95;;;19.80;99.90;;;;;;4973748;28;20170;-71
2023/10/12 01:34:48;;;;;;;6.80;3.70;;;19.80;99.90;;;;;;4973788;28;20599;-70
2023/10/12 01:37:26;;;;;;;5.73;4.30;;;19.70;99.90;;;;;;4973878;28;20231;-71
2023/10/12 01:39:57;;;;;;;4.97;4.17;;;19.60;99.90;;;;;;4973960;28;20193;-71
2023/10/12 01:45:17;;;;;;;7.07;6.20;;;19.20;99.90;;;;;;4973387;28;20623;-78
2023/10/12 01:47:44;;;;;;;6.47;4.90;;;19.20;99.90;;;;;;4973523;28;20178;-73
2023/10/12 01:50:11;;;;;;;5.95;5.35;;;19.20;99.90;;;;;;4973952;28;20610;-71
2023/10/12 01:52:37;;;;;;;7.03;6.27;;;19.20;99.90;;;;;;4973664;28;20592;-70
2023/10/12 01:55:15;;;;;;;9.70;5.07;;;19.20;99.90;;;;;;4973661;28;20571;-69
2023/10/12 01:57:47;;;;;;;8.70;5.30;;;19.20;99.90;;;;;;4973271;28;20256;-70
2023/10/12 02:00:15;;;;;;;8.68;6.63;;;19.10;99.90;;;;;;4973466;28;20752;-72
2023/10/12 02:02:50;;;;;;;5.97;5.43;;;19.10;99.90;;;;;;4973319;28;20170;-72
2023/10/12 02:05:24;;;;;;;8.00;4.60;;;19.00;99.90;;;;;;4973166;28;20227;-71
2023/10/12 02:07:52;;;;;;;12.77;5.10;;;19.00;99.90;;;;;;4973119;28;20595;-69
2023/10/12 02:10:18;;;;;;;9.33;4.83;;;18.80;99.90;;;;;;4973615;28;20190;-69
2023/10/12 02:12:46;;;;;;;5.43;4.47;;;18.70;99.90;;;;;;4973824;28;20177;-71
2023/10/12 02:15:15;;;;;;;6.30;4.53;;;18.70;99.90;;;;;;4974016;28;20205;-69
2023/10/12 02:17:42;;;;;;;8.70;4.83;;;18.70;99.90;;;;;;4973522;28;20703;-72
2023/10/12 02:20:11;;;;;;;10.70;5.18;;;18.60;99.90;;;;;;4971993;28;20279;-72
2023/10/12 02:22:37;;;;;;;9.43;5.17;;;18.40;99.90;;;;;;4972889;28;20178;-71
2023/10/12 02:27:58;;;;;;;7.37;4.67;;;17.90;99.90;;;;;;4968147;28;20182;-72
2023/10/12 02:30:28;;;;;;;8.53;5.53;;;17.50;99.90;;;;;;4973150;28;20205;-71
2023/10/12 02:33:08;;;;;;;10.23;6.07;;;17.20;99.90;;;;;;4972600;28;20223;-71
2023/10/12 02:35:37;;;;;;;9.93;5.43;;;16.90;99.90;;;;;;4972600;28;20184;-71
2023/10/12 02:38:04;;;;;;;9.17;5.73;;;16.80;99.90;;;;;;4972659;28;20188;-71
2023/10/12 02:40:32;;;;;;;6.77;5.60;;;16.60;99.90;;;;;;4973009;28;20240;-71
2023/10/12 02:42:59;;;;;;;7.10;5.53;;;16.50;99.90;;;;;;4972813;28;20543;-71
2023/10/12 02:45:28;;;;;;;11.73;6.47;;;16.40;99.90;;;;;;4972838;28;20213;-71
2023/10/12 02:47:53;;;;;;;7.83;5.30;;;16.40;99.90;;;;;;4972557;28;20184;-72
2023/10/12 02:50:26;;;;;;;9.37;6.57;;;16.30;99.90;;;;;;4972926;28;20608;-70
2023/10/12 02:52:52;;;;;;;11.47;5.90;;;16.30;99.90;;;;;;4972709;28;20205;-70
2023/10/12 02:57:53;;;;;;;13.13;6.37;;;16.30;99.90;;;;;;4972634;28;20177;-71
2023/10/12 03:00:33;;;;;;;6.90;5.57;;;16.30;99.90;;;;;;4971304;28;20207;-70
2023/10/12 03:03:07;;;;;;;11.00;6.47;;;16.40;99.90;;;;;;4972653;28;20169;-70
2023/10/12 03:05:45;;;;;;;10.47;6.07;;;16.40;99.90;;;;;;4972673;28;20284;-71
2023/10/12 03:08:14;;;;;;;10.27;6.40;;;16.50;99.90;;;;;;4972775;28;20180;-71
2023/10/12 03:13:36;;;;;;;15.10;6.60;;;16.60;99.90;;;;;;4972549;28;20169;-70
2023/10/12 03:18:36;;;;;;;9.07;6.00;;;16.60;99.90;;;;;;4972675;28;20162;-72
2023/10/12 03:21:11;;;;;;;14.87;6.97;;;16.60;99.90;;;;;;4972392;28;20752;-71
2023/10/12 03:23:41;;;;;;;9.53;7.30;;;16.60;99.90;;;;;;4972383;28;20193;-71
2023/10/12 03:26:24;;;;;;;13.60;6.70;;;16.60;99.90;;;;;;4972284;28;20173;-70
2023/10/12 03:28:53;;;;;;;8.80;7.23;;;16.60;99.90;;;;;;4972766;28;20177;-71
2023/10/12 03:31:33;;;;;;;8.67;7.13;;;16.60;99.90;;;;;;4972715;28;20669;-70
2023/10/12 03:34:00;;;;;;;10.10;6.93;;;16.60;99.90;;;;;;4972160;28;20267;-70
2023/10/12 03:36:31;;;;;;;12.77;7.23;;;16.50;99.90;;;;;;4972310;28;20216;-70
2023/10/12 03:41:55;;;;;;;8.60;6.57;;;16.60;99.90;;;;;;4967131;28;20217;-70
2023/10/12 03:44:36;;;;;;;10.27;7.07;;;16.60;99.90;;;;;;4972228;28;20209;-71
2023/10/12 03:47:14;;;;;;;10.27;7.53;;;16.60;99.90;;;;;;4974285;28;20185;-72
2023/10/12 03:50:00;;;;;;;10.70;7.27;;;16.60;99.90;;;;;;4976180;28;20185;-71
2023/10/12 03:52:29;;;;;;;10.33;7.23;;;16.60;99.90;;;;;;4975810;28;20177;-72
2023/10/12 03:55:15;;;;;;;12.17;7.90;;;16.60;99.90;;;;;;4975360;28;20620;-72
2023/10/12 03:57:59;;;;;;;12.73;8.07;;;16.50;99.90;;;;;;4975712;28;20272;-72
2023/10/12 04:00:26;;;;;;;9.00;7.07;;;16.50;99.90;;;;;;4975861;28;20205;-72
2023/10/12 04:05:35;;;;;;;12.53;7.63;;;16.50;99.90;;;;;;4975637;28;20696;-72
2023/10/12 04:18:40;;;;;;;12.60;8.23;;;16.40;99.90;;;;;;4975779;28;20173;-71
2023/10/12 04:21:06;;;;;;;11.70;8.10;;;16.40;99.90;;;;;;4974984;28;20688;-72
2023/10/12 04:23:49;;;;;;;8.93;8.03;;;16.40;99.90;;;;;;4975184;28;20177;-71
2023/10/12 04:29:21;;;;;;;10.07;8.00;;;16.40;99.90;;;;;;4975444;28;20732;-71
2023/10/12 04:34:12;;;;;;;10.63;7.90;;;16.40;99.90;;;;;;4974931;28;20177;-70
2023/10/12 04:41:39;;;;;;;11.07;8.03;;;16.50;99.90;;;;;;4975305;28;20190;-70
2023/10/12 04:44:25;;;;;;;12.37;8.50;;;16.50;99.90;;;;;;4974674;28;20217;-71
2023/10/12 04:46:51;;;;;;;11.83;8.40;;;16.50;99.90;;;;;;4974879;28;20189;-71
2023/10/12 04:51:50;;;;;;;10.70;8.57;;;16.50;99.90;;;;;;4974989;28;20169;-72
2023/10/12 04:54:17;;;;;;;10.97;8.47;;;16.60;99.90;;;;;;4974783;28;20180;-71
2023/10/12 04:56:56;;;;;;;9.37;7.90;;;16.60;99.90;;;;;;4975050;28;20178;-70
2023/10/12 04:59:43;;;;;;;11.53;7.80;;;16.50;99.90;;;;;;4974362;28;20184;-72
2023/10/12 05:02:22;;;;;;;11.50;7.40;;;16.50;99.90;;;;;;4974405;28;20673;-71
2023/10/12 05:09:49;;;;;;;10.13;7.83;;;16.40;99.90;;;;;;4974141;28;20586;-71
2023/10/12 05:12:18;;;;;;;13.97;8.07;;;16.40;99.90;;;;;;4974571;28;20718;-71
2023/10/12 05:14:44;;;;;;;11.00;8.37;;;16.30;99.90;;;;;;4974407;28;20285;-71
2023/10/12 05:17:11;;;;;;;14.30;8.37;;;16.30;99.90;;;;;;4974085;28;20196;-71
2023/10/12 05:19:36;;;;;;;12.67;9.00;;;16.30;99.90;;;;;;4974351;28;20650;-72
2023/10/12 05:22:02;;;;;;;13.30;8.07;;;16.30;99.90;;;;;;4974169;28;20192;-72
2023/10/12 05:24:28;;;;;;;9.33;7.60;;;16.30;99.90;;;;;;4974469;28;20202;-71
2023/10/12 05:29:45;;;;;;;13.33;8.10;;;16.20;99.90;;;;;;4974512;28;20204;-70
2023/10/12 05:32:18;;;;;;;9.40;8.47;;;16.20;99.90;;;;;;4974001;28;20243;-71
2023/10/12 05:34:46;;;;;;;13.43;8.03;;;16.20;99.90;;;;;;4972797;28;20178;-71
2023/10/12 05:39:55;;;;;;;11.80;8.57;;;16.20;99.90;;;;;;4973969;28;20205;-72
2023/10/12 05:42:24;;;;;;;10.73;8.30;;;16.20;99.90;;;;;;4973776;28;20173;-72
2023/10/12 05:44:51;;;;;;;12.37;8.93;;;16.20;99.90;;;;;;4972819;28;20209;-72
2023/10/12 05:47:30;;;;;;;13.57;8.37;;;16.20;99.90;;;;;;4973304;28;20605;-72
2023/10/12 05:49:58;;;;;;;14.37;8.37;;;16.20;99.90;;;;;;4972714;28;20193;-72
2023/10/12 05:52:25;;;;;;;14.17;8.73;;;16.20;99.90;;;;;;4973216;28;20189;-72
2023/10/12 05:54:58;;;;;;;13.00;9.33;;;16.20;99.90;;;;;;4973059;28;20170;-72
2023/10/12 05:57:29;;;;;;;14.27;8.87;;;16.20;99.90;;;;;;4973319;28;20245;-72
2023/10/12 05:59:58;;;;;;;12.00;8.70;;;16.10;99.90;;;;;;4973109;28;20200;-72
2023/10/12 06:02:26;;;;;;;12.37;8.73;;;16.20;99.90;;;;;;4972793;28;20256;-73
2023/10/12 06:04:52;;;;;;;14.97;9.10;;;16.20;99.90;;;;;;4972407;28;20202;-72
2023/10/12 06:07:17;;;;;;;14.97;10.00;;;16.10;99.90;;;;;;4972999;28;20180;-72
2023/10/12 06:09:43;;;;;;;14.60;9.13;;;16.20;99.90;;;;;;4972193;28;20219;-73
2023/10/12 06:12:12;;;;;;;13.17;9.37;;;16.20;99.90;;;;;;4972257;28;20630;-73
2023/10/12 06:14:38;;;;;;;12.33;8.30;;;16.20;99.90;;;;;;4972884;28;20177;-72
2023/10/12 06:17:21;;;;;;;19.40;9.43;;;16.20;99.90;;;;;;4972695;28;20273;-72
2023/10/12 06:19:54;;;;;;;14.03;9.53;;;16.10;99.90;;;;;;4972628;28;20193;-73
2023/10/12 06:22:19;;;;;;;21.13;9.17;;;16.10;99.90;;;;;;4972983;28;20579;-73
2023/10/12 06:24:49;;;;;;;12.43;9.00;;;16.00;99.90;;;;;;4972596;28;20303;-73
2023/10/12 06:29:54;;;;;;;17.53;9.37;;;16.00;99.90;;;;;;4972747;28;20189;-72
2023/10/12 06:32:25;;;;;;;16.67;9.53;;;15.90;99.90;;;;;;4972595;28;20174;-73
2023/10/12 06:45:46;;;;;;;12.67;9.00;;;16.00;99.90;;;;;;4972454;28;20209;-73
2023/10/12 06:51:02;;;;;;;14.73;9.23;;;15.90;99.90;;;;;;4972469;28;20662;-73
2023/10/12 06:53:35;;;;;;;14.50;8.43;;;15.90;99.90;;;;;;4971855;28;20716;-73
2023/10/12 06:59:08;;;;;;;13.93;8.90;;;16.00;99.90;;;;;;4972338;28;20219;-73
2023/10/12 07:04:13;;;;;;;14.53;9.43;;;15.90;99.90;;;;;;4972268;28;20205;-72
2023/10/12 07:06:56;;;;;;;13.63;9.07;;;15.90;99.90;;;;;;4972233;28;20188;-72
2023/10/12 07:09:28;;;;;;;14.00;9.23;;;15.90;99.90;;;;;;4970917;28;20213;-73
2023/10/12 07:11:54;;;;;;;15.50;8.87;;;15.90;99.90;;;;;;4972268;28;20548;-72
2023/10/12 07:14:30;;;;;;;14.47;9.10;;;15.90;99.90;;;;;;4972364;28;20177;-73
2023/10/12 07:16:57;;;;;;;12.10;8.60;;;16.00;99.90;;;;;;4972196;28;20169;-72
2023/10/12 07:19:24;;;;;;;17.17;9.37;;;16.00;99.90;;;;;;4972278;28;20185;-73
2023/10/12 07:21:55;;;;;;;14.70;8.30;;;16.00;99.90;;;;;;4973865;28;20176;-73
2023/10/12 07:24:23;;;;;;;10.77;7.87;;;16.10;99.90;;;;;;4975464;28;20736;-73
2023/10/12 07:26:49;;;;;;;14.40;8.07;;;16.10;99.90;;;;;;4976037;28;20208;-73
2023/10/12 07:29:19;;;;;;;15.07;9.20;;;16.10;99.90;;;;;;4976133;28;20220;-73
2023/10/12 07:31:48;;;;;;;16.67;8.60;;;16.20;99.90;;;;;;4976032;28;20169;-73
2023/10/12 07:34:18;;;;;;;11.53;8.07;;;16.20;99.90;;;;;;4974703;28;20661;-72
2023/10/12 07:36:53;;;;;;;20.53;8.60;;;16.20;99.90;;;;;;4974592;28;20335;-72
2023/10/12 07:39:38;;;;;;;12.33;7.60;;;16.20;99.90;;;;;;4975701;28;20177;-73
2023/10/12 07:42:05;;;;;;;12.80;7.83;;;16.30;99.90;;;;;;4975526;28;20272;-73
2023/10/12 07:45:06;;;;;;;10.17;7.97;;;16.30;99.90;;;;;;4975595;28;20283;-73
2023/10/12 07:47:41;;;;;;;11.97;7.60;;;16.40;99.90;;;;;;4973456;28;20224;-72
2023/10/12 07:50:25;;;;;;;11.17;7.70;;;16.50;99.90;;;;;;4975100;28;20197;-72
2023/10/12 07:53:06;;;;;;;12.70;7.37;;;16.50;99.90;;;;;;4975140;28;20190;-72
2023/10/12 07:55:41;;;;;;;11.30;8.23;;;16.60;99.90;;;;;;4975556;28;20561;-72
2023/10/12 07:58:13;;;;;;;10.83;7.07;;;16.70;99.90;;;;;;4975462;28;20598;-72
2023/10/12 08:00:41;;;;;;;12.03;7.73;;;16.80;99.90;;;;;;4975453;28;20189;-72
2023/10/12 08:15:56;;;;;;;11.27;7.33;;;17.10;99.90;;;;;;4975420;28;20173;-72
2023/10/12 08:21:25;;;;;;;8.77;6.43;;;17.20;99.90;;;;;;4974985;28;20340;-72
2023/10/12 08:23:57;;;;;;;8.30;6.60;;;17.20;99.90;;;;;;4974601;28;20760;-72
2023/10/12 08:32:03;;;;;;;10.83;7.40;;;17.40;99.90;;;;;;4974911;28;20169;-72
2023/10/12 08:37:18;;;;;;;11.67;7.63;;;17.40;99.90;;;;;;4974560;28;20185;-72
2023/10/12 08:44:53;;;;;;;11.77;7.37;;;17.60;99.90;;;;;;4974541;28;20670;-72
2023/10/12 08:47:44;;;;;;;8.50;6.57;;;17.70;99.90;;;;;;4974584;28;20259;-72
2023/10/12 08:52:50;;;;;;;10.00;6.70;;;17.80;99.90;;;;;;4974281;28;20182;-72
2023/10/12 08:55:19;;;;;;;12.70;7.67;;;17.90;99.90;;;;;;4974461;28;20169;-72
2023/10/12 08:58:01;;;;;;;11.47;6.90;;;17.90;99.90;;;;;;4974301;28;20548;-72
2023/10/12 09:03:04;;;;;;;10.97;6.63;;;18.00;99.90;;;;;;4974211;28;20177;-72
2023/10/12 09:05:30;;;;;;;9.93;7.00;;;18.10;99.90;;;;;;4974368;28;20197;-73
2023/10/12 09:13:25;;;;;;;12.63;7.23;;;18.20;99.90;;;;;;4973924;28;20706;-72
2023/10/12 09:15:54;;;;;;;7.37;5.93;;;18.30;99.90;;;;;;4974092;28;20177;-72
2023/10/12 09:18:30;;;;;;;12.33;6.80;;;18.40;99.90;;;;;;4973851;28;20181;-72
2023/10/12 09:34:00;;;;;;;7.70;6.03;;;19.30;99.90;;;;;;4973377;28;20165;-72
2023/10/12 09:36:37;;;;;;;11.05;6.85;;;19.50;99.90;;;;;;4973628;28;20697;-72
2023/10/12 09:39:03;;;;;;;9.13;6.35;;;19.60;99.90;;;;;;4973594;28;20192;-71
2023/10/12 09:41:38;;;;;;;10.10;6.43;;;19.80;99.90;;;;;;4973212;28;20205;-72
2023/10/12 09:44:07;;;;;;;9.50;6.43;;;19.90;99.90;;;;;;4972723;28;20205;-71
2023/10/12 09:46:35;;;;;;;6.82;6.05;;;20.10;99.90;;;;;;4973484;28;20765;-72
2023/10/12 09:49:08;;;;;;;13.13;6.57;;;20.20;99.90;;;;;;4972074;28;20199;-71
2023/10/12 09:51:45;;;;;;;9.20;6.05;;;20.30;99.90;;;;;;4973341;28;20202;-71
2023/10/12 09:54:18;;;;;;;14.05;6.95;;;20.40;99.90;;;;;;4973028;28;20175;-71
2023/10/12 09:56:57;;;;;;;8.60;6.03;;;20.60;99.90;;;;;;4973180;28;20681;-71
2023/10/12 09:59:23;;;;;;;11.32;7.10;;;20.70;99.90;;;;;;4973229;28;20177;-71
2023/10/12 10:01:50;;;;;;;8.90;6.15;;;20.70;99.90;;;;;;4972936;28;20187;-72
2023/10/12 10:07:25;;;;;;;11.52;5.90;;;20.70;99.90;;;;;;4953406;28;20178;-71
2023/10/12 10:09:54;;;;;;;7.57;6.53;;;20.70;99.90;;;;;;4953628;28;20225;-72
2023/10/12 10:12:22;;;;;;;10.77;6.88;;;20.70;99.90;;;;;;4953491;28;20177;-71
2023/10/12 10:15:10;;;;;;;8.98;6.32;;;20.80;99.90;;;;;;4953336;28;20178;-71
2023/10/12 10:17:47;;;;;;;8.07;6.35;;;20.80;99.90;;;;;;4953725;28;20170;-71
2023/10/12 10:22:57;;;;;;;11.38;6.80;;;21.20;99.90;;;;;;4972708;28;20181;-71
2023/10/12 10:25:36;;;;;;;11.93;7.60;;;21.40;99.90;;;;;;4972573;28;20343;-71
2023/10/12 10:28:07;;;;;;;9.30;6.97;;;21.50;99.90;;;;;;4972466;28;20173;-71
2023/10/12 10:30:49;;;;;;;7.95;6.80;;;21.60;99.90;;;;;;4972994;28;20181;-71
2023/10/12 10:33:20;;;;;;;6.95;6.32;;;21.70;99.90;;;;;;4972221;28;20181;-71
2023/10/12 10:35:58;;;;;;;8.52;7.10;;;21.90;99.90;;;;;;4972689;28;20206;-70
2023/10/12 10:38:32;;;;;;;8.52;7.65;;;21.90;99.90;;;;;;4972526;28;20190;-72
2023/10/12 10:41:08;;;;;;;8.70;6.78;;;21.90;99.90;;;;;;4972072;28;20279;-72
2023/10/12 10:43:39;;;;;;;8.95;8.05;;;21.80;99.90;;;;;;4972164;28;20177;-71
2023/10/12 10:46:13;;;;;;;10.25;7.50;;;21.80;99.90;;;;;;4972301;28;20186;-71
2023/10/12 10:48:42;;;;;;;7.53;6.35;;;21.70;99.90;;;;;;4972396;28;20238;-71
2023/10/12 10:51:11;;;;;;;8.05;6.60;;;21.60;99.90;;;;;;4972194;28;20216;-72
2023/10/12 10:53:40;;;;;;;9.30;6.85;;;21.40;99.90;;;;;;4972239;28;20261;-71
2023/10/12 10:56:16;;;;;;;10.82;6.72;;;21.20;99.90;;;;;;4971630;28;20165;-72
2023/10/12 10:58:45;;;;;;;9.40;6.60;;;21.10;99.90;;;;;;4972578;28;20170;-72
2023/10/12 11:01:14;;;;;;;10.05;6.13;;;21.00;99.90;;;;;;4972302;28;20287;-71
2023/10/12 11:03:40;;;;;;;12.73;6.68;;;21.00;99.90;;;;;;4971724;28;20653;-71
2023/10/12 11:06:21;;;;;;;9.68;6.38;;;21.10;99.90;;;;;;4972264;28;20205;-72
2023/10/12 11:09:05;;;;;;;7.38;6.35;;;21.20;99.90;;;;;;4970599;28;20181;-71
2023/10/12 11:11:37;;;;;;;11.43;6.35;;;21.40;99.90;;;;;;4972622;28;20276;-72
2023/10/12 11:14:10;;;;;;;7.80;5.65;;;21.70;99.90;;;;;;4970765;28;20567;-71
2023/10/12 11:16:37;;;;;;;7.65;6.78;;;21.80;99.90;;;;;;4972001;28;20486;-72
2023/10/12 11:19:08;;;;;;;11.18;6.90;;;21.90;99.90;;;;;;4972076;28;20185;-72
2023/10/12 11:21:34;;;;;;;8.85;6.45;;;22.00;99.90;;;;;;4972221;28;20580;-71
2023/10/12 11:24:02;;;;;;;8.15;6.13;;;22.00;99.90;;;;;;4971678;28;20206;-72
2023/10/12 11:26:29;;;;;;;6.72;5.45;;;22.00;99.90;;;;;;4972177;28;20197;-71
2023/10/12 11:29:11;;;;;;;7.38;5.35;;;22.00;99.90;;;;;;4971438;28;20653;-71
2023/10/12 11:31:37;;;;;;;10.38;5.50;;;22.00;99.90;;;;;;4972055;28;20198;-72
2023/10/12 11:34:07;;;;;;;11.93;6.47;;;22.00;99.90;;;;;;4971599;28;20174;-72
2023/10/12 11:36:35;;;;;;;12.07;6.80;;;22.10;99.90;;;;;;4972027;28;20665;-72
2023/10/12 11:39:04;;;;;;;8.68;6.55;;;22.30;99.90;;;;;;4971461;28;20182;-71
2023/10/12 11:41:30;;;;;;;8.05;6.15;;;22.40;99.90;;;;;;4971933;28;20201;-71
2023/10/12 11:44:05;;;;;;;6.75;5.05;;;22.40;99.90;;;;;;4971732;28;20263;-71
2023/10/12 11:46:45;;;;;;;9.45;6.13;;;22.50;99.90;;;;;;4971814;28;20658;-72
2023/10/12 11:49:11;;;;;;;9.65;5.95;;;22.50;99.90;;;;;;4971991;28;20216;-71
2023/10/12 11:51:40;;;;;;;9.63;5.63;;;22.40;99.90;;;;;;4971813;28;20241;-72
2023/10/12 11:54:08;;;;;;;10.13;5.57;;;22.30;99.90;;;;;;4971066;28;20272;-72
2023/10/12 11:56:43;;;;;;;8.05;5.32;;;22.20;99.90;;;;;;4971744;28;20556;-71
2023/10/12 11:59:19;;;;;;;8.00;5.50;;;22.20;99.90;;;;;;4971451;28;20191;-71
2023/10/12 12:01:44;;;;;;;10.65;6.90;;;22.20;99.90;;;;;;4971829;28;20200;-71
2023/10/12 12:04:15;;;;;;;11.82;5.88;;;22.20;99.90;;;;;;4971273;28;20209;-71
2023/10/12 12:06:42;;;;;;;8.82;5.40;;;22.20;99.90;;;;;;4971777;28;20192;-71
2023/10/12 12:09:08;;;;;;;9.85;5.90;;;22.10;99.90;;;;;;4973838;28;20519;-71
2023/10/12 12:11:37;;;;;;;8.30;5.38;;;22.00;99.90;;;;;;4975021;28;20196;-72
2023/10/12 12:14:06;;;;;;;6.25;5.40;;;21.90;99.90;;;;;;4974635;28;20185;-72
2023/10/12 12:16:34;;;;;;;12.05;7.15;;;21.70;99.90;;;;;;4975078;28;20174;-72
2023/10/12 12:19:00;;;;;;;9.43;5.93;;;21.60;99.90;;;;;;4974879;28;20224;-70
2023/10/12 12:21:29;;;;;;;13.55;6.05;;;21.40;99.90;;;;;;4975026;28;20193;-72
2023/10/12 12:24:22;;;;;;;8.27;6.32;;;21.30;99.90;;;;;;4974297;28;20205;-71
2023/10/12 12:26:53;;;;;;;6.20;5.57;;;21.20;99.90;;;;;;4974722;28;20680;-72
2023/10/12 12:29:26;;;;;;;7.78;5.18;;;21.10;99.90;;;;;;4975053;28;20173;-71
2023/10/12 12:31:52;;;;;;;9.20;5.82;;;21.00;99.90;;;;;;4974538;28;20646;-71
2023/10/12 12:37:05;;;;;;;7.43;5.40;;;20.90;99.90;;;;;;4974596;28;20232;-71
2023/10/12 12:39:33;;;;;;;8.73;5.45;;;20.80;99.90;;;;;;4974472;28;20184;-71
2023/10/12 12:41:58;;;;;;;10.43;5.45;;;20.70;99.90;;;;;;4974526;28;20177;-71
2023/10/12 12:44:24;;;;;;;13.13;6.60;;;20.70;99.90;;;;;;4974370;28;20209;-71
2023/10/12 12:46:50;;;;;;;8.73;5.38;;;20.60;99.90;;;;;;4974385;28;20229;-71
2023/10/12 12:49:15;;;;;;;8.75;5.13;;;20.50;99.90;;;;;;4974241;28;20173;-71
2023/10/12 12:51:41;;;;;;;13.13;5.78;;;20.30;99.90;;;;;;4974500;28;20636;-71
2023/10/12 12:54:07;;;;;;;10.63;5.10;;;20.00;99.90;;;;;;4974170;28;20178;-71
2023/10/12 12:56:33;;;;;;;11.30;5.17;;;19.70;99.90;;;;;;4974192;28;20181;-72
2023/10/12 12:58:59;;;;;;;6.97;5.40;;;19.30;99.90;;;;;;4974452;28;20180;-73
2023/10/12 13:01:27;;;;;;;13.00;6.00;;;18.90;99.90;;;;;;4974451;28;20201;-72
2023/10/12 13:03:56;;;;;;;7.93;5.87;;;18.60;99.90;;;;;;4974056;28;20181;-72
2023/10/12 13:06:22;;;;;;;6.50;5.77;;;18.40;99.90;;;;;;4974585;28;20634;-72
2023/10/12 13:08:48;;;;;;;13.33;6.13;;;18.20;99.90;;;;;;4974214;28;20437;-72
2023/10/12 13:11:21;;;;;;;10.67;6.23;;;18.20;99.90;;;;;;4973868;28;20336;-73
2023/10/12 13:13:47;;;;;;;9.53;6.43;;;18.20;99.90;;;;;;4973541;28;20691;-73
2023/10/12 13:16:14;;;;;;;12.07;6.30;;;18.30;99.90;;;;;;4973842;28;20709;-73
2023/10/12 13:18:46;;;;;;;11.10;6.17;;;18.30;99.90;;;;;;4973886;28;20177;-73
2023/10/12 13:21:14;;;;;;;10.67;6.63;;;18.10;99.90;;;;;;4973973;28;20724;-73
2023/10/12 13:23:42;;;;;;;10.77;6.70;;;18.10;99.90;;;;;;4973787;28;20166;-73
2023/10/12 13:26:08;;;;;;;15.27;6.77;;;18.10;99.90;;;;;;4973884;28;20296;-73
2023/10/12 13:28:34;;;;;;;10.30;7.03;;;18.00;99.90;;;;;;4973462;28;20193;-72
2023/10/12 13:31:01;;;;;;;11.53;6.80;;;17.90;99.90;;;;;;4973730;28;20202;-73
2023/10/12 13:33:28;;;;;;;9.77;6.13;;;17.80;99.90;;;;;;4973397;28;20184;-73
2023/10/12 13:35:55;;;;;;;10.00;6.87;;;17.80;99.90;;;;;;4973679;28;20594;-73
2023/10/12 13:38:21;;;;;;;19.57;6.80;;;17.70;99.90;;;;;;4973099;28;20538;-73
2023/10/12 13:40:48;;;;;;;9.47;6.43;;;17.70;99.90;;;;;;4973620;28;20202;-72
2023/10/12 13:43:15;;;;;;;7.80;6.33;;;17.70;99.90;;;;;;4973789;28;20268;-73
2023/10/12 13:45:47;;;;;;;11.87;6.43;;;17.70;99.90;;;;;;4973572;28;20216;-72
2023/10/12 13:48:25;;;;;;;5.90;5.30;;;17.70;99.90;;;;;;4973187;28;20161;-72
2023/10/12 13:51:04;;;;;;;6.77;5.20;;;17.70;99.90;;;;;;4972046;28;20287;-72
2023/10/12 13:53:37;;;;;;;10.30;6.13;;;17.70;99.90;;;;;;4972849;28;20248;-71
2023/10/12 13:56:08;;;;;;;12.80;5.53;;;17.70;99.90;;;;;;4973046;28;20252;-72
2023/10/12 13:58:41;;;;;;;9.33;5.37;;;17.70;99.90;;;;;;4973543;28;20256;-72
2023/10/12 14:01:21;;;;;;;7.10;4.83;;;17.80;99.90;;;;;;4973211;28;20571;-72
2023/10/12 14:04:00;;;;;;;7.73;5.23;;;17.80;99.90;;;;;;4972844;28;20177;-72
2023/10/12 14:06:27;;;;;;;5.87;4.73;;;17.90;99.90;;;;;;4973110;28;20248;-71
2023/10/12 14:08:54;;;;;;;12.17;5.30;;;18.00;99.90;;;;;;4973093;28;20209;-71
2023/10/12 14:11:20;;;;;;;6.63;5.03;;;18.00;99.90;;;;;;4972942;28;20682;-72
2023/10/12 14:13:47;;;;;;;7.17;5.93;;;17.90;99.90;;;;;;4972759;28;20185;-73
2023/10/12 14:16:13;;;;;;;8.10;5.70;;;17.90;99.90;;;;;;4973099;28;20212;-74
2023/10/12 14:18:40;;;;;;;7.90;5.00;;;18.10;99.90;;;;;;4972804;28;20565;-72
2023/10/12 14:21:10;;;;;;;10.27;5.50;;;18.10;99.90;;;;;;4972348;28;20288;-72
2023/10/12 14:23:43;;;;;;;10.73;6.13;;;18.10;99.90;;;;;;4972763;28;20173;-72
2023/10/12 14:26:10;;;;;;;8.40;4.93;;;18.20;99.90;;;;;;4972997;28;20209;-72
2023/10/12 14:28:36;;;;;;;8.90;5.33;;;18.20;99.90;;;;;;4972483;28;20192;-72
2023/10/12 14:31:05;;;;;;;9.67;5.07;;;18.30;99.90;;;;;;4972008;28;20198;-71
2023/10/12 14:33:31;;;;;;;11.10;5.33;;;18.40;99.90;;;;;;4972592;28;20173;-71
2023/10/12 14:35:58;;;;;;;7.07;5.63;;;18.40;99.90;;;;;;4972954;28;20166;-71
2023/10/12 14:38:24;;;;;;;9.63;5.50;;;18.40;99.90;;;;;;4972664;28;20177;-71
2023/10/12 14:40:50;;;;;;;5.97;4.63;;;18.50;99.90;;;;;;4971272;28;20189;-71
2023/10/12 14:43:17;;;;;;;8.50;5.40;;;18.60;99.90;;;;;;4972382;28;20625;-72
2023/10/12 14:45:48;;;;;;;8.10;5.77;;;18.60;99.90;;;;;;4953482;28;20205;-71
2023/10/12 14:48:17;;;;;;;11.00;5.00;;;18.70;99.90;;;;;;4953277;28;20720;-71
2023/10/12 14:50:49;;;;;;;11.07;6.03;;;18.80;99.90;;;;;;4953481;28;20204;-72
2023/10/12 14:53:16;;;;;;;8.87;6.00;;;18.90;99.90;;;;;;4956030;28;20209;-71
2023/10/12 14:55:48;;;;;;;7.37;6.33;;;18.90;99.90;;;;;;4972475;28;20248;-71
2023/10/12 14:58:16;;;;;;;11.30;6.53;;;18.80;99.90;;;;;;4972518;28;20169;-71
2023/10/12 15:00:44;;;;;;;7.30;5.77;;;18.80;99.90;;;;;;4971913;28;20198;-72
2023/10/12 15:03:10;;;;;;;7.80;5.83;;;18.80;99.90;;;;;;4972201;28;20542;-71
2023/10/12 15:05:39;;;;;;;11.70;6.63;;;18.70;99.90;;;;;;4972335;28;20205;-72
2023/10/12 15:08:07;;;;;;;10.93;6.80;;;18.60;99.90;;;;;;4972228;28;20339;-72
2023/10/12 15:10:43;;;;;;;12.70;6.43;;;18.50;99.90;;;;;;4971970;28;20534;-72
2023/10/12 15:13:11;;;;;;;11.43;6.80;;;18.40;99.90;;;;;;4970823;28;20169;-71
2023/10/12 15:15:41;;;;;;;9.93;7.03;;;18.30;99.90;;;;;;4972449;28;20165;-72
2023/10/12 15:18:06;;;;;;;13.40;7.10;;;18.30;99.90;;;;;;4972121;28;20177;-71
2023/10/12 15:20:32;;;;;;;10.90;7.50;;;18.30;99.90;;;;;;4972007;28;20204;-72
2023/10/12 15:23:00;;;;;;;9.83;7.10;;;18.30;99.90;;;;;;4972148;28;20185;-71
2023/10/12 15:25:26;;;;;;;10.37;6.87;;;18.30;99.90;;;;;;4972174;28;20205;-72
2023/10/12 15:27:54;;;;;;;14.70;7.20;;;18.40;99.90;;;;;;4971927;28;20176;-71
2023/10/12 15:30:22;;;;;;;15.10;8.33;;;18.40;99.90;;;;;;4972365;28;20189;-72